Indianapolis, Indiana
Traffic Map
Current Weather Conditions
Indianapolis, Indiana
Few Clouds Light Fog
Few Clouds
17°
Feels Like: 17°
Wind Chill: 17° Ceiling: Unl
Heat Index: 17° Visibility: 6mi
Dew Point: 15° Wind: 5mph
Humidity: 87% Direction: 360° (N)
Pressure: 29.95in Gusts: 0mph
Raw Report DataKIND 041054Z 36004KT 6SM BR BCFG FEW230 17/15 A2995 RMK AO2 SLP137 T01720150
Traffic Incident Summary
Active as of:
Severity:
Category:
InformationThere was an issue retrieving the traffic information for this location. Please try a different location or try again shortly.
Advertisements
Track Severe Weather on mobile